Time;durP1;ratioP1;P1;durP2;ratioP2;P2;SDS_P1;SDS_P2;PMS_P1;PMS_P2;Temp;Humidity;BMP_temperature;BMP_pressure;BME280_temperature;BME280_humidity;BME280_pressure;Samples;Min_cycle;Max_cycle;Signal;HPM_P1;HPM_P2
2021/09/23 00:00:17;;;;;;;43.42;35.22;;;12.50;99.90;;;;;;6187008;23;20085;-72
2021/09/23 00:05:10;;;;;;;44.55;36.42;;;12.50;99.90;;;;;;6211975;23;20028;-72
2021/09/23 00:07:35;;;;;;;41.70;34.33;;;12.50;99.90;;;;;;6212130;23;20046;-73
2021/09/23 00:10:05;;;;;;;41.55;35.55;;;12.50;99.90;;;;;;6213230;23;20022;-72
2021/09/23 00:12:30;;;;;;;42.88;37.42;;;12.50;99.90;;;;;;6187883;23;20044;-73
2021/09/23 00:14:56;;;;;;;42.33;36.00;;;12.50;99.90;;;;;;6188038;23;20019;-72
2021/09/23 00:17:22;;;;;;;44.80;37.70;;;12.40;99.90;;;;;;6188370;23;20035;-72
2021/09/23 00:19:49;;;;;;;46.63;37.55;;;12.40;99.90;;;;;;6212499;23;20020;-72
2021/09/23 00:22:15;;;;;;;45.92;37.25;;;12.40;99.90;;;;;;6213388;23;20063;-72
2021/09/23 00:24:41;;;;;;;43.13;35.40;;;12.40;99.90;;;;;;6187269;23;20016;-72
2021/09/23 00:27:06;;;;;;;42.95;35.88;;;12.40;99.90;;;;;;6212510;23;20020;-72
2021/09/23 00:29:32;;;;;;;45.75;35.67;;;12.40;99.90;;;;;;6212159;23;20107;-73
2021/09/23 00:31:58;;;;;;;41.17;34.70;;;12.40;99.90;;;;;;6188602;23;20082;-72
2021/09/23 00:34:24;;;;;;;40.17;35.00;;;12.40;99.90;;;;;;6212199;23;20052;-72
2021/09/23 00:36:50;;;;;;;44.47;36.75;;;12.40;99.90;;;;;;6186908;23;20100;-73
2021/09/23 00:39:15;;;;;;;46.85;35.40;;;12.40;99.90;;;;;;6187574;23;20016;-72
2021/09/23 00:41:41;;;;;;;46.03;35.72;;;12.40;99.90;;;;;;6212178;23;20016;-72
2021/09/23 00:44:22;;;;;;;43.67;35.85;;;12.40;99.90;;;;;;6162709;23;20027;-72
2021/09/23 00:46:50;;;;;;;43.05;34.50;;;12.30;99.90;;;;;;6187666;23;20073;-72
2021/09/23 00:49:17;;;;;;;44.45;34.03;;;12.30;99.90;;;;;;6212461;23;20468;-72
2021/09/23 00:51:44;;;;;;;44.17;34.38;;;12.30;99.90;;;;;;6187445;23;20173;-72
2021/09/23 00:54:10;;;;;;;43.67;34.05;;;12.30;99.90;;;;;;6187574;23;20020;-71
2021/09/23 00:56:37;;;;;;;41.42;34.20;;;12.30;99.90;;;;;;6211923;23;20472;-72
2021/09/23 00:59:04;;;;;;;48.47;35.60;;;12.30;99.90;;;;;;6188205;23;20058;-72
2021/09/23 01:01:29;;;;;;;41.17;34.35;;;12.30;99.90;;;;;;6189183;23;20099;-71
2021/09/23 01:03:55;;;;;;;46.70;35.10;;;12.30;99.90;;;;;;6189146;23;20059;-71
2021/09/23 01:06:21;;;;;;;41.63;32.80;;;12.30;99.90;;;;;;6214402;23;20444;-72
2021/09/23 01:08:58;;;;;;;41.45;33.72;;;12.30;99.90;;;;;;6189206;23;20012;-72
2021/09/23 01:11:27;;;;;;;42.15;32.75;;;12.30;99.90;;;;;;6189688;23;20066;-72
2021/09/23 01:13:54;;;;;;;42.45;34.10;;;12.30;99.90;;;;;;6214408;23;20053;-72
2021/09/23 01:16:21;;;;;;;38.67;32.60;;;12.20;99.90;;;;;;6214162;23;20444;-71
2021/09/23 01:18:47;;;;;;;48.17;34.25;;;12.20;99.90;;;;;;6213402;23;20031;-71
2021/09/23 01:21:13;;;;;;;43.17;35.60;;;12.20;99.90;;;;;;6164463;23;20051;-72
2021/09/23 01:23:42;;;;;;;38.65;31.42;;;12.20;99.90;;;;;;6213902;23;20024;-72
2021/09/23 01:26:19;;;;;;;45.13;34.75;;;12.10;99.90;;;;;;6188756;23;20020;-71
2021/09/23 01:28:45;;;;;;;44.42;34.30;;;12.10;99.90;;;;;;6187797;23;20031;-71
2021/09/23 01:31:10;;;;;;;41.88;34.80;;;12.10;99.90;;;;;;6214207;23;20034;-71
2021/09/23 01:33:37;;;;;;;47.67;35.65;;;12.10;99.90;;;;;;6188497;23;20488;-71
2021/09/23 01:36:03;;;;;;;42.85;35.50;;;12.10;99.90;;;;;;6213418;23;20027;-71
2021/09/23 01:38:32;;;;;;;46.25;35.22;;;12.10;99.90;;;;;;6188828;23;20020;-70
2021/09/23 01:40:58;;;;;;;46.42;35.95;;;12.00;99.90;;;;;;6164249;23;20012;-71
2021/09/23 01:43:24;;;;;;;44.70;35.10;;;12.00;99.90;;;;;;6187610;23;20023;-71
2021/09/23 01:45:50;;;;;;;45.50;35.35;;;12.00;99.90;;;;;;6188457;23;20016;-72
2021/09/23 01:48:16;;;;;;;45.25;34.83;;;12.00;99.90;;;;;;6212773;23;20027;-72
2021/09/23 01:50:42;;;;;;;42.47;35.15;;;11.90;99.90;;;;;;6211143;23;20024;-72
2021/09/23 01:53:08;;;;;;;43.63;34.97;;;11.90;99.90;;;;;;6188996;23;20055;-72
2021/09/23 01:55:34;;;;;;;49.67;37.10;;;11.90;99.90;;;;;;6213586;23;20016;-72
2021/09/23 01:58:00;;;;;;;43.80;36.28;;;11.90;99.90;;;;;;6188438;23;20054;-72
2021/09/23 02:00:26;;;;;;;49.65;36.70;;;11.90;99.90;;;;;;6187758;23;20027;-72
2021/09/23 02:02:54;;;;;;;46.60;36.85;;;11.90;99.90;;;;;;6212645;23;20023;-72
2021/09/23 02:05:20;;;;;;;47.33;36.83;;;11.90;99.90;;;;;;6188769;23;20028;-71
2021/09/23 02:07:46;;;;;;;44.53;36.70;;;11.90;99.90;;;;;;6164330;23;20015;-72
2021/09/23 02:10:13;;;;;;;46.17;36.30;;;11.90;99.90;;;;;;6214411;23;20380;-72
2021/09/23 02:12:39;;;;;;;47.33;37.97;;;11.90;99.90;;;;;;6189568;23;20669;-72
2021/09/23 02:15:06;;;;;;;48.35;37.42;;;11.90;99.90;;;;;;6190026;23;20020;-72
2021/09/23 02:17:32;;;;;;;46.35;36.92;;;11.90;99.90;;;;;;6189459;23;20024;-72
2021/09/23 02:19:59;;;;;;;44.28;35.00;;;11.90;99.90;;;;;;6164538;23;20400;-72
2021/09/23 02:22:25;;;;;;;46.88;36.38;;;11.90;99.90;;;;;;6215099;23;20020;-72
2021/09/23 02:24:51;;;;;;;47.35;37.58;;;11.90;99.90;;;;;;6189855;23;20019;-72
2021/09/23 02:27:17;;;;;;;46.33;37.33;;;11.90;99.90;;;;;;6189199;23;20020;-72
2021/09/23 02:29:43;;;;;;;47.92;36.58;;;11.90;99.90;;;;;;6213895;23;20023;-73
2021/09/23 02:32:09;;;;;;;48.85;36.38;;;11.90;99.90;;;;;;6189653;23;20095;-72
2021/09/23 02:34:35;;;;;;;43.15;35.30;;;11.90;99.90;;;;;;6214323;23;20051;-72
2021/09/23 02:37:05;;;;;;;48.78;35.13;;;11.90;99.90;;;;;;6163443;23;20463;-73
2021/09/23 02:39:35;;;;;;;47.00;36.77;;;11.90;99.90;;;;;;6164280;23;20054;-73
2021/09/23 02:42:00;;;;;;;45.65;34.90;;;11.90;99.90;;;;;;6165159;23;20545;-72
2021/09/23 02:44:26;;;;;;;47.60;35.42;;;11.90;99.90;;;;;;6189549;23;20047;-73
2021/09/23 02:46:52;;;;;;;47.03;34.88;;;11.90;99.90;;;;;;6213820;23;20052;-74
2021/09/23 02:49:18;;;;;;;43.90;35.85;;;11.90;99.90;;;;;;6188706;23;20023;-73
2021/09/23 02:51:43;;;;;;;48.25;36.15;;;11.90;99.90;;;;;;6186898;23;20039;-73
2021/09/23 02:54:10;;;;;;;43.95;35.10;;;11.90;99.90;;;;;;6213953;23;20073;-73
2021/09/23 02:56:35;;;;;;;51.85;36.58;;;11.90;99.90;;;;;;6213972;23;20012;-72
2021/09/23 02:59:02;;;;;;;46.28;34.72;;;11.90;99.90;;;;;;6163524;23;20027;-73
2021/09/23 03:01:28;;;;;;;45.10;35.67;;;11.90;99.90;;;;;;6188469;23;20463;-73
2021/09/23 03:03:53;;;;;;;49.95;37.70;;;12.00;99.90;;;;;;6189148;23;20016;-73
2021/09/23 03:06:19;;;;;;;51.90;37.45;;;12.00;99.90;;;;;;6189280;23;20094;-72
2021/09/23 03:08:45;;;;;;;49.72;37.75;;;12.00;99.90;;;;;;6212874;23;20027;-73
2021/09/23 03:11:11;;;;;;;44.22;36.03;;;12.00;99.90;;;;;;6164121;23;20019;-73
2021/09/23 03:13:37;;;;;;;48.33;37.25;;;12.00;99.90;;;;;;6188160;23;20016;-73
2021/09/23 03:16:04;;;;;;;47.15;37.25;;;12.00;99.90;;;;;;6213093;23;20981;-73
2021/09/23 03:18:30;;;;;;;48.05;36.88;;;12.00;99.90;;;;;;6214378;23;20016;-73
2021/09/23 03:20:56;;;;;;;49.00;36.30;;;12.10;99.90;;;;;;6188067;23;20460;-72
2021/09/23 03:23:22;;;;;;;50.17;37.67;;;12.00;99.90;;;;;;6212995;23;20472;-72
2021/09/23 03:25:50;;;;;;;50.20;37.45;;;12.00;99.90;;;;;;6188055;23;20016;-73
2021/09/23 03:28:16;;;;;;;50.00;38.47;;;12.00;99.90;;;;;;6188361;23;20096;-73
2021/09/23 03:30:42;;;;;;;52.53;38.05;;;12.10;99.90;;;;;;6188186;23;20024;-72
2021/09/23 03:33:08;;;;;;;50.72;38.33;;;12.10;99.90;;;;;;6188242;23;20445;-73
2021/09/23 03:35:36;;;;;;;45.42;36.75;;;12.10;99.90;;;;;;6212882;23;20083;-73
2021/09/23 03:38:04;;;;;;;45.22;35.97;;;12.10;99.90;;;;;;6163589;23;20016;-73
2021/09/23 03:40:30;;;;;;;47.63;37.05;;;12.10;99.90;;;;;;6214064;23;20445;-73
2021/09/23 03:42:56;;;;;;;52.65;38.13;;;12.10;99.90;;;;;;6213043;23;20016;-73
2021/09/23 03:45:23;;;;;;;49.47;38.10;;;12.20;99.90;;;;;;6189110;23;20670;-73
2021/09/23 03:47:50;;;;;;;55.45;40.42;;;12.20;99.90;;;;;;6164104;23;20042;-73
2021/09/23 03:50:16;;;;;;;52.90;39.80;;;12.20;99.90;;;;;;6189391;23;20047;-73
2021/09/23 03:52:42;;;;;;;56.08;40.50;;;12.20;99.90;;;;;;6212873;23;20020;-73
2021/09/23 03:55:09;;;;;;;54.60;41.33;;;12.30;99.90;;;;;;6187854;23;20023;-73
2021/09/23 03:57:34;;;;;;;55.15;39.35;;;12.30;99.90;;;;;;6212031;23;20013;-73
2021/09/23 04:00:00;;;;;;;54.42;41.47;;;12.30;99.90;;;;;;6212780;23;20030;-72
2021/09/23 04:02:26;;;;;;;57.55;42.55;;;12.30;99.90;;;;;;6187428;23;20023;-73
2021/09/23 04:04:52;;;;;;;52.22;39.53;;;12.30;99.90;;;;;;6212639;23;20016;-73
2021/09/23 04:07:18;;;;;;;53.08;40.17;;;12.30;99.90;;;;;;6212695;23;20020;-72
2021/09/23 04:09:44;;;;;;;52.90;39.80;;;12.30;99.90;;;;;;6213908;23;20023;-71
2021/09/23 04:12:10;;;;;;;56.17;42.53;;;12.40;99.90;;;;;;6188523;23;20023;-72
2021/09/23 04:14:35;;;;;;;55.63;42.00;;;12.40;99.90;;;;;;6213846;23;20016;-72
2021/09/23 04:17:04;;;;;;;57.00;42.85;;;12.40;99.90;;;;;;6189031;23;20016;-72
2021/09/23 04:19:30;;;;;;;59.00;42.58;;;12.40;99.90;;;;;;6214265;23;20460;-71
2021/09/23 04:21:55;;;;;;;60.00;43.70;;;12.40;99.90;;;;;;6213196;23;20023;-71
2021/09/23 04:24:21;;;;;;;55.92;43.25;;;12.40;99.90;;;;;;6189307;23;20087;-71
2021/09/23 04:26:48;;;;;;;57.33;44.45;;;12.50;99.90;;;;;;6187254;23;20023;-71
2021/09/23 04:29:14;;;;;;;55.72;42.90;;;12.40;99.90;;;;;;6188474;23;20026;-72
2021/09/23 04:31:40;;;;;;;56.85;44.58;;;12.50;99.90;;;;;;6188455;23;20038;-72
2021/09/23 04:34:06;;;;;;;58.13;43.00;;;12.50;99.90;;;;;;6165203;23;20020;-72
2021/09/23 04:36:34;;;;;;;57.58;44.08;;;12.60;99.90;;;;;;6215297;23;20058;-71
2021/09/23 04:39:00;;;;;;;58.55;44.35;;;12.60;99.90;;;;;;6215134;23;20085;-72
2021/09/23 04:41:26;;;;;;;57.13;46.30;;;12.60;99.90;;;;;;6215684;23;20448;-72
2021/09/23 04:43:52;;;;;;;59.03;42.20;;;12.70;99.90;;;;;;6190792;23;20024;-72
2021/09/23 04:46:24;;;;;;;59.72;44.78;;;12.70;99.90;;;;;;6165374;23;20070;-72
2021/09/23 04:48:51;;;;;;;61.22;46.08;;;12.70;99.90;;;;;;6215509;23;20020;-72
2021/09/23 04:51:18;;;;;;;60.63;45.63;;;12.80;99.90;;;;;;6214225;23;20043;-71
2021/09/23 04:53:44;;;;;;;60.65;45.58;;;12.80;99.90;;;;;;6214789;23;20015;-72
2021/09/23 04:56:10;;;;;;;61.92;46.85;;;12.80;99.90;;;;;;6189741;23;20043;-71
2021/09/23 04:58:36;;;;;;;63.63;46.97;;;12.80;99.90;;;;;;6164680;23;20333;-71
2021/09/23 05:01:02;;;;;;;59.88;46.17;;;12.90;99.90;;;;;;6214427;23;20016;-71
2021/09/23 05:03:28;;;;;;;63.00;46.97;;;12.90;99.90;;;;;;6214407;23;20019;-71
2021/09/23 05:05:54;;;;;;;63.40;46.85;;;13.00;99.90;;;;;;6214191;23;20050;-71
2021/09/23 05:08:20;;;;;;;61.65;45.33;;;13.00;99.90;;;;;;6215209;23;20377;-71
2021/09/23 05:10:45;;;;;;;54.13;44.97;;;13.00;99.90;;;;;;6189827;23;20051;-71
2021/09/23 05:13:11;;;;;;;61.15;45.55;;;13.10;99.90;;;;;;6164886;23;20016;-71
2021/09/23 05:15:39;;;;;;;62.25;45.53;;;13.10;99.90;;;;;;6164795;23;20020;-71
2021/09/23 05:18:05;;;;;;;60.45;44.95;;;13.10;99.90;;;;;;6165274;23;20016;-71
2021/09/23 05:20:32;;;;;;;59.15;46.20;;;13.10;99.90;;;;;;6215424;23;20495;-71
2021/09/23 05:22:58;;;;;;;60.85;45.50;;;13.10;99.90;;;;;;6189655;23;20012;-72
2021/09/23 05:25:24;;;;;;;67.30;48.47;;;13.10;99.90;;;;;;6165190;23;20027;-71
2021/09/23 05:27:52;;;;;;;62.05;47.55;;;13.10;99.90;;;;;;6213934;23;20016;-71
2021/09/23 05:30:18;;;;;;;63.47;47.65;;;13.00;99.90;;;;;;6190483;23;20339;-72
2021/09/23 05:32:44;;;;;;;62.25;48.35;;;13.00;99.90;;;;;;6164633;23;20107;-71
2021/09/23 05:35:10;;;;;;;64.75;47.70;;;12.90;99.90;;;;;;6161608;23;20039;-71
2021/09/23 05:37:36;;;;;;;63.10;48.20;;;12.90;99.90;;;;;;6211563;23;20016;-72
2021/09/23 05:40:05;;;;;;;67.13;50.10;;;12.90;99.90;;;;;;6209522;23;20042;-71
2021/09/23 05:42:31;;;;;;;67.20;48.53;;;12.80;99.90;;;;;;6212435;23;20024;-71
2021/09/23 05:44:57;;;;;;;71.25;53.22;;;12.80;99.90;;;;;;6187071;23;20074;-71
2021/09/23 05:47:23;;;;;;;65.63;50.50;;;12.80;99.90;;;;;;6162284;23;20082;-71
2021/09/23 05:49:49;;;;;;;71.90;52.60;;;12.80;99.90;;;;;;6186125;23;20440;-72
2021/09/23 05:52:16;;;;;;;68.97;50.78;;;12.80;99.90;;;;;;6210335;23;20456;-72
2021/09/23 05:54:46;;;;;;;67.47;51.72;;;12.80;99.90;;;;;;6208116;23;20043;-72
2021/09/23 05:57:11;;;;;;;72.78;53.90;;;12.80;99.90;;;;;;6184738;23;20090;-71
2021/09/23 05:59:37;;;;;;;71.57;52.38;;;12.80;99.90;;;;;;6187212;23;20012;-71
2021/09/23 06:02:03;;;;;;;71.82;53.20;;;12.70;99.90;;;;;;6188561;23;20727;-72
2021/09/23 06:04:29;;;;;;;72.57;53.63;;;12.80;99.90;;;;;;6213187;23;20476;-72
2021/09/23 06:06:55;;;;;;;73.28;54.47;;;12.80;99.90;;;;;;6163462;23;20048;-71
2021/09/23 06:09:21;;;;;;;76.18;56.80;;;12.80;99.90;;;;;;6188761;23;20020;-70
2021/09/23 06:11:47;;;;;;;72.68;54.38;;;12.80;99.90;;;;;;6213792;23;20387;-71
2021/09/23 06:14:13;;;;;;;79.20;56.63;;;12.80;99.90;;;;;;6187520;23;20027;-71
2021/09/23 06:16:39;;;;;;;78.00;55.65;;;12.80;99.90;;;;;;6213669;23;20229;-71
2021/09/23 06:19:05;;;;;;;79.85;56.15;;;12.90;99.90;;;;;;6213548;23;20039;-71
2021/09/23 06:21:31;;;;;;;82.70;57.10;;;12.90;99.90;;;;;;6212900;23;20017;-71
2021/09/23 06:23:56;;;;;;;83.13;58.40;;;12.90;99.90;;;;;;6213405;23;20903;-71
2021/09/23 06:26:22;;;;;;;77.95;55.95;;;13.00;99.90;;;;;;6212929;23;20460;-70
2021/09/23 06:28:49;;;;;;;80.75;57.88;;;13.00;99.90;;;;;;6186073;23;20020;-71
2021/09/23 06:31:14;;;;;;;88.88;59.83;;;13.10;99.90;;;;;;6213168;23;20463;-71
2021/09/23 06:33:44;;;;;;;82.57;56.67;;;13.10;99.90;;;;;;6210439;23;20024;-71
2021/09/23 06:36:11;;;;;;;81.90;57.07;;;13.20;99.90;;;;;;6162936;23;20020;-71
2021/09/23 06:38:39;;;;;;;81.70;60.08;;;13.20;99.90;;;;;;6210054;23;20052;-71
2021/09/23 06:41:05;;;;;;;78.60;58.22;;;13.30;99.90;;;;;;6213136;23;20016;-72
2021/09/23 06:43:34;;;;;;;79.72;56.05;;;13.30;99.90;;;;;;6187723;23;20020;-72
2021/09/23 06:46:00;;;;;;;84.90;57.28;;;13.30;99.90;;;;;;6213863;23;20035;-71
2021/09/23 06:48:25;;;;;;;87.43;57.42;;;13.40;99.90;;;;;;6185417;23;20142;-71
2021/09/23 06:50:51;;;;;;;81.10;56.03;;;13.40;99.90;;;;;;6186579;23;20055;-71
2021/09/23 06:53:17;;;;;;;80.57;56.28;;;13.40;99.90;;;;;;6161143;23;20387;-71
2021/09/23 06:55:43;;;;;;;80.80;56.42;;;13.40;99.90;;;;;;6186039;23;20020;-71
2021/09/23 06:58:08;;;;;;;84.10;57.65;;;13.60;99.90;;;;;;6186436;23;20075;-72
2021/09/23 07:00:34;;;;;;;79.65;56.25;;;13.50;99.90;;;;;;6210530;23;20338;-71
2021/09/23 07:03:00;;;;;;;77.78;55.30;;;13.60;99.90;;;;;;6161637;23;20080;-71
2021/09/23 07:05:26;;;;;;;82.10;55.95;;;13.70;99.90;;;;;;6185695;23;20020;-71
2021/09/23 07:07:52;;;;;;;78.10;54.25;;;13.80;99.90;;;;;;6210343;23;20020;-72
2021/09/23 07:10:18;;;;;;;77.82;54.97;;;13.90;99.90;;;;;;6160971;23;20101;-71
2021/09/23 07:12:44;;;;;;;74.90;53.42;;;13.90;99.90;;;;;;6185040;23;20118;-73
2021/09/23 07:15:10;;;;;;;75.43;54.08;;;14.00;99.90;;;;;;6187443;23;20024;-72
2021/09/23 07:17:36;;;;;;;75.78;54.22;;;14.10;99.90;;;;;;6186909;23;20012;-72
2021/09/23 07:20:06;;;;;;;73.60;54.53;;;14.10;99.90;;;;;;6187840;23;20023;-72
2021/09/23 07:22:35;;;;;;;76.97;52.88;;;14.10;99.90;;;;;;6212065;23;20040;-72
2021/09/23 07:25:00;;;;;;;73.32;52.92;;;14.20;99.90;;;;;;6187158;23;20065;-71
2021/09/23 07:27:26;;;;;;;71.15;52.95;;;14.30;99.90;;;;;;6162000;23;20012;-72
2021/09/23 07:29:53;;;;;;;73.05;53.58;;;14.30;99.90;;;;;;6211659;23;20093;-71
2021/09/23 07:32:22;;;;;;;71.20;51.78;;;14.40;99.90;;;;;;6211834;23;20020;-72
2021/09/23 07:34:48;;;;;;;70.90;52.10;;;14.40;99.90;;;;;;6160951;23;20095;-71
2021/09/23 07:37:14;;;;;;;71.15;51.03;;;14.40;99.90;;;;;;6210933;23;20100;-72
2021/09/23 07:39:39;;;;;;;65.82;51.92;;;14.50;99.90;;;;;;6185029;23;20458;-70
2021/09/23 07:42:05;;;;;;;63.47;49.97;;;14.50;99.90;;;;;;6212021;23;20016;-70
2021/09/23 07:44:36;;;;;;;65.43;50.47;;;14.50;99.90;;;;;;6186416;23;20024;-71
2021/09/23 07:47:04;;;;;;;70.35;51.15;;;14.50;99.90;;;;;;6186509;23;20051;-71
2021/09/23 07:49:30;;;;;;;66.88;50.50;;;14.60;99.90;;;;;;6213717;23;20441;-70
2021/09/23 07:51:56;;;;;;;67.55;49.75;;;14.60;99.90;;;;;;6187690;23;20016;-71
2021/09/23 07:54:22;;;;;;;68.18;49.35;;;14.70;99.90;;;;;;6211338;23;20023;-71
2021/09/23 07:56:48;;;;;;;71.82;51.40;;;14.70;99.90;;;;;;6211263;23;20012;-71
2021/09/23 07:59:14;;;;;;;60.80;47.17;;;14.80;99.90;;;;;;6186558;23;20016;-72
2021/09/23 08:01:40;;;;;;;61.88;49.10;;;14.80;99.90;;;;;;6185927;23;20075;-71
2021/09/23 08:04:06;;;;;;;59.53;47.10;;;14.90;99.90;;;;;;6210339;23;20091;-70
2021/09/23 08:06:32;;;;;;;56.85;42.70;;;15.00;99.90;;;;;;6210501;23;20349;-71
2021/09/23 08:08:58;;;;;;;51.72;41.38;;;15.10;99.90;;;;;;6188071;23;20023;-70
2021/09/23 08:11:25;;;;;;;55.28;41.63;;;15.10;99.90;;;;;;6212022;23;20012;-71
2021/09/23 08:13:51;;;;;;;47.67;38.47;;;15.20;99.90;;;;;;6212383;23;20103;-70
2021/09/23 08:16:16;;;;;;;51.85;37.75;;;15.30;99.90;;;;;;6162927;23;20074;-70
2021/09/23 08:18:42;;;;;;;44.95;35.30;;;15.40;99.90;;;;;;6187284;23;20054;-71
2021/09/23 08:21:08;;;;;;;47.28;35.08;;;15.50;99.90;;;;;;6187312;23;20016;-70
2021/09/23 08:23:34;;;;;;;42.92;32.40;;;15.60;99.90;;;;;;6187581;23;20020;-70
2021/09/23 08:26:00;;;;;;;43.70;32.67;;;15.70;99.90;;;;;;6163228;23;20016;-70
2021/09/23 08:28:27;;;;;;;45.35;33.33;;;15.80;99.90;;;;;;6188794;23;20020;-71
2021/09/23 08:30:55;;;;;;;44.45;32.58;;;15.90;99.90;;;;;;6214304;23;20016;-71
2021/09/23 08:33:22;;;;;;;49.53;33.03;;;15.90;99.90;;;;;;6211892;23;20062;-70
2021/09/23 08:35:47;;;;;;;38.95;29.95;;;16.00;99.90;;;;;;6186608;23;20315;-71
2021/09/23 08:38:17;;;;;;;41.20;28.45;;;16.10;99.90;;;;;;6188977;23;20365;-71
2021/09/23 08:40:43;;;;;;;33.60;26.33;;;16.10;99.90;;;;;;6189953;23;20393;-71
2021/09/23 08:43:09;;;;;;;34.95;25.83;;;16.20;99.90;;;;;;6214553;23;20104;-69
2021/09/23 08:45:35;;;;;;;31.67;23.50;;;16.40;99.90;;;;;;6213789;23;20509;-71
2021/09/23 08:48:05;;;;;;;27.13;18.67;;;16.50;99.90;;;;;;6163454;23;20020;-71
2021/09/23 08:50:30;;;;;;;21.65;17.23;;;16.60;99.90;;;;;;6212899;23;20023;-71
2021/09/23 08:52:57;;;;;;;16.80;13.30;;;16.60;99.90;;;;;;6164279;23;20146;-71
2021/09/23 08:55:34;;;;;;;20.27;12.70;;;16.70;99.90;;;;;;6213833;23;20114;-71
2021/09/23 08:58:04;;;;;;;14.18;10.10;;;16.70;99.90;;;;;;6183951;23;20024;-71
2021/09/23 09:00:34;;;;;;;11.75;9.13;;;16.80;99.90;;;;;;6182562;23;20492;-70
2021/09/23 09:03:12;;;;;;;12.70;8.20;;;16.80;99.90;;;;;;6182490;23;20027;-70
2021/09/23 09:05:38;;;;;;;11.77;6.38;;;16.90;99.90;;;;;;6157035;23;20012;-71
2021/09/23 09:08:11;;;;;;;11.13;5.47;;;16.90;99.90;;;;;;6182646;23;20076;-71
2021/09/23 09:10:37;;;;;;;9.52;5.55;;;16.90;99.90;;;;;;6207115;23;20017;-71
2021/09/23 09:13:05;;;;;;;9.05;5.80;;;16.90;99.90;;;;;;6182816;23;20020;-72
2021/09/23 09:15:43;;;;;;;9.18;4.68;;;16.90;99.90;;;;;;6182853;23;20392;-70
2021/09/23 09:18:20;;;;;;;8.88;4.50;;;16.90;99.90;;;;;;6207601;23;20028;-72
2021/09/23 09:21:04;;;;;;;8.05;4.25;;;17.00;99.90;;;;;;6207269;23;20078;-72
2021/09/23 09:23:56;;;;;;;9.48;4.50;;;17.10;99.90;;;;;;6182948;23;20075;-71
2021/09/23 09:26:31;;;;;;;6.30;3.60;;;17.30;99.90;;;;;;6206876;23;20429;-72
2021/09/23 09:29:00;;;;;;;9.63;3.50;;;17.50;99.90;;;;;;6208753;23;20099;-71
2021/09/23 09:31:27;;;;;;;6.43;3.38;;;17.60;99.90;;;;;;6209393;23;20055;-71
2021/09/23 09:33:55;;;;;;;8.48;3.70;;;17.60;99.90;;;;;;6158087;23;20033;-71
2021/09/23 09:36:27;;;;;;;9.95;3.78;;;17.70;99.90;;;;;;6182766;23;20055;-71
2021/09/23 09:39:14;;;;;;;8.98;3.50;;;17.70;99.90;;;;;;6206796;23;20016;-70
2021/09/23 09:41:44;;;;;;;11.27;3.33;;;17.70;99.90;;;;;;6208254;23;20016;-71
2021/09/23 09:44:12;;;;;;;7.50;3.10;;;17.80;99.90;;;;;;6208753;23;20028;-71
2021/09/23 09:46:47;;;;;;;8.25;3.20;;;17.90;99.90;;;;;;6207947;23;20244;-72
2021/09/23 09:49:13;;;;;;;9.07;3.03;;;18.00;99.90;;;;;;6208574;23;20108;-72
2021/09/23 09:51:47;;;;;;;10.30;3.28;;;18.20;99.90;;;;;;6182864;23;20549;-71
2021/09/23 09:54:15;;;;;;;8.10;3.17;;;18.30;99.90;;;;;;6207975;23;20020;-71
2021/09/23 09:56:44;;;;;;;9.38;3.60;;;18.40;99.90;;;;;;6207164;23;20048;-72
2021/09/23 09:59:13;;;;;;;8.18;2.95;;;18.50;99.90;;;;;;6181940;23;20086;-71
2021/09/23 10:01:50;;;;;;;9.20;3.33;;;18.50;99.90;;;;;;6182885;23;20330;-72
2021/09/23 10:04:17;;;;;;;6.93;2.60;;;18.40;99.90;;;;;;6183783;23;20020;-71
2021/09/23 10:06:44;;;;;;;8.88;2.42;;;18.40;99.90;;;;;;6157395;23;20031;-71
2021/09/23 10:09:12;;;;;;;8.15;2.42;;;18.30;99.90;;;;;;6158141;23;20126;-71
2021/09/23 10:11:42;;;;;;;8.57;2.28;;;18.20;99.90;;;;;;6183658;23;20012;-72
2021/09/23 10:14:19;;;;;;;6.97;2.50;;;18.10;99.90;;;;;;6183556;23;20024;-71
2021/09/23 10:16:46;;;;;;;7.88;2.88;;;18.10;99.90;;;;;;6182098;23;20445;-71
2021/09/23 10:19:12;;;;;;;6.75;2.40;;;18.00;99.90;;;;;;6182951;23;20021;-71
2021/09/23 10:21:38;;;;;;;8.40;2.60;;;18.00;99.90;;;;;;6207807;23;20103;-72
2021/09/23 10:24:07;;;;;;;6.63;2.20;;;17.90;99.90;;;;;;6182787;23;20024;-71
2021/09/23 10:26:35;;;;;;;8.02;2.20;;;17.90;99.90;;;;;;6181792;23;20476;-72
2021/09/23 10:29:06;;;;;;;7.32;2.10;;;17.90;99.90;;;;;;6179736;23;20020;-71
2021/09/23 10:31:36;;;;;;;;;;;17.90;99.90;;;;;;6205575;23;20114;-71
2021/09/23 10:34:03;;;;;;;;;;;17.90;99.90;;;;;;6207437;23;19970;-71
2021/09/23 10:36:34;;;;;;;7.05;2.10;;;17.80;99.90;;;;;;6207425;23;19916;-71
2021/09/23 10:39:05;;;;;;;9.98;2.05;;;17.80;99.90;;;;;;6205573;23;20070;-71
2021/09/23 10:41:39;;;;;;;6.28;1.88;;;17.80;99.90;;;;;;6207827;23;20401;-71
2021/09/23 10:44:05;;;;;;;8.35;2.13;;;17.90;99.90;;;;;;6207217;23;20055;-72
2021/09/23 10:46:33;;;;;;;6.43;1.90;;;18.00;99.90;;;;;;6182313;23;20028;-71
2021/09/23 10:49:05;;;;;;;9.18;1.90;;;18.20;99.90;;;;;;6181477;23;20096;-72
2021/09/23 10:51:33;;;;;;;8.80;2.33;;;18.40;99.90;;;;;;6183229;23;20020;-71
2021/09/23 10:53:59;;;;;;;6.13;2.15;;;18.50;99.90;;;;;;6206903;23;20376;-72
2021/09/23 10:56:28;;;;;;;6.70;2.05;;;18.50;99.50;;;;;;6180696;23;20016;-70
2021/09/23 10:58:54;;;;;;;8.13;2.42;;;18.50;99.90;;;;;;6155847;23;20024;-70
2021/09/23 11:01:29;;;;;;;9.90;1.98;;;18.50;99.90;;;;;;6208255;23;20024;-71
2021/09/23 11:03:58;;;;;;;5.85;1.80;;;18.50;99.90;;;;;;6207868;23;20024;-71
2021/09/23 11:06:33;;;;;;;6.75;1.98;;;18.50;99.60;;;;;;6208124;23;20020;-70
2021/09/23 11:09:26;;;;;;;9.13;1.90;;;18.40;99.50;;;;;;6156150;23;20023;-71
2021/09/23 11:11:55;;;;;;;5.70;1.77;;;18.30;99.80;;;;;;6206860;23;20234;-72
2021/09/23 11:14:22;;;;;;;10.52;2.00;;;18.20;99.90;;;;;;6205821;23;20024;-73
2021/09/23 11:16:53;;;;;;;5.05;1.80;;;18.20;99.90;;;;;;6206489;23;20032;-71
2021/09/23 11:19:21;;;;;;;9.35;3.15;;;18.20;99.90;;;;;;6208786;23;20025;-71
2021/09/23 11:21:49;;;;;;;11.65;2.00;;;18.10;99.90;;;;;;6182175;23;20495;-70
2021/09/23 11:24:16;;;;;;;10.48;2.38;;;18.10;99.90;;;;;;6182107;23;20023;-71
2021/09/23 11:26:43;;;;;;;6.90;2.13;;;18.20;99.90;;;;;;6206316;23;20012;-71
2021/09/23 11:29:09;;;;;;;7.05;1.77;;;18.20;99.90;;;;;;6206394;23;20016;-71
2021/09/23 11:31:48;;;;;;;8.90;2.13;;;18.20;99.90;;;;;;6207798;23;20016;-71
2021/09/23 11:34:32;;;;;;;8.23;2.40;;;18.20;99.90;;;;;;6207400;23;20024;-70
2021/09/23 11:36:57;;;;;;;9.82;2.28;;;18.20;99.90;;;;;;6206464;23;20059;-71
2021/09/23 11:39:24;;;;;;;9.05;2.15;;;18.20;99.90;;;;;;6182138;23;20114;-71
2021/09/23 11:42:05;;;;;;;8.45;1.90;;;18.20;99.90;;;;;;6207442;23;20460;-71
2021/09/23 11:44:34;;;;;;;9.38;2.05;;;18.20;99.90;;;;;;6207842;23;20024;-71
2021/09/23 11:47:03;;;;;;;8.50;2.40;;;18.10;99.90;;;;;;6181846;23;20012;-70
2021/09/23 11:49:29;;;;;;;8.45;2.60;;;18.00;99.90;;;;;;6182729;23;20013;-72
2021/09/23 11:51:56;;;;;;;9.02;2.50;;;17.90;99.90;;;;;;6207586;23;20472;-71
2021/09/23 11:54:25;;;;;;;5.80;2.10;;;17.80;99.90;;;;;;6158181;23;20027;-71
2021/09/23 11:56:54;;;;;;;10.15;2.22;;;17.70;99.90;;;;;;6157284;23;20264;-71
2021/09/23 11:59:24;;;;;;;9.27;2.47;;;17.70;99.90;;;;;;6206866;23;20031;-71
2021/09/23 12:02:06;;;;;;;11.90;2.17;;;17.70;99.90;;;;;;6206815;23;20028;-71
2021/09/23 12:04:35;;;;;;;9.20;2.30;;;17.70;99.90;;;;;;6132112;23;20354;-71
2021/09/23 12:07:04;;;;;;;9.15;2.47;;;17.60;99.90;;;;;;6206268;23;20017;-71
2021/09/23 12:09:30;;;;;;;8.32;2.15;;;17.50;99.90;;;;;;6157927;23;20078;-72
2021/09/23 12:11:56;;;;;;;9.40;2.78;;;17.40;99.90;;;;;;6182248;23;20020;-71
2021/09/23 12:14:22;;;;;;;9.30;2.28;;;17.40;99.90;;;;;;6206259;23;20036;-71
2021/09/23 12:17:03;;;;;;;7.63;2.42;;;17.30;99.90;;;;;;6181727;23;20012;-71
2021/09/23 12:19:30;;;;;;;13.10;2.75;;;17.20;99.90;;;;;;6206845;23;20150;-71
2021/09/23 12:22:03;;;;;;;9.25;2.95;;;17.10;99.90;;;;;;6181272;23;20108;-71
2021/09/23 12:24:35;;;;;;;7.10;3.10;;;17.10;99.90;;;;;;6183532;23;20028;-71
2021/09/23 12:27:11;;;;;;;10.60;3.15;;;17.10;99.90;;;;;;6204276;23;20017;-71
2021/09/23 12:29:36;;;;;;;7.90;2.63;;;17.10;99.90;;;;;;6206391;23;20399;-71
2021/09/23 12:32:08;;;;;;;8.75;2.65;;;17.10;99.90;;;;;;6181154;23;20059;-71
2021/09/23 12:34:47;;;;;;;9.30;3.20;;;17.10;99.90;;;;;;6181947;23;20056;-71
2021/09/23 12:37:14;;;;;;;10.88;3.15;;;17.20;99.90;;;;;;6156827;23;20036;-71